Time;durP1;ratioP1;P1;durP2;ratioP2;P2;SDS_P1;SDS_P2;PMS_P1;PMS_P2;Temp;Humidity;BMP_temperature;BMP_pressure;BME280_temperature;BME280_humidity;BME280_pressure;Samples;Min_cycle;Max_cycle;Signal;HPM_P1;HPM_P2
2022/03/21 00:00:19;;;;;;;62.30;27.40;;;;;;;-2.92;58.23;103154.55;88465;1271;94367;-66
2022/03/21 00:02:46;;;;;;;55.60;25.00;;;;;;;-2.97;58.13;103158.02;88450;1271;79741;-67
2022/03/21 00:04:58;;;;;;;61.80;29.20;;;;;;;-3.01;58.08;103155.64;88483;1271;80129;-66
2022/03/21 00:07:08;;;;;;;61.90;28.30;;;;;;;-3.04;58.56;103156.25;88411;1271;99875;-65
2022/03/21 00:09:17;;;;;;;61.00;28.60;;;;;;;-3.09;58.47;103154.41;88474;1270;88613;-66
2022/03/21 00:11:26;;;;;;;62.20;26.50;;;;;;;-3.13;58.60;103151.67;88473;1271;95368;-66
2022/03/21 00:13:36;;;;;;;63.00;27.40;;;;;;;-3.17;58.67;103156.89;88432;1271;80563;-65
2022/03/21 00:15:50;;;;;;;60.60;27.70;;;;;;;-3.21;58.98;103153.47;88434;1271;83885;-74
2022/03/21 00:18:01;;;;;;;65.70;28.50;;;;;;;-3.26;59.22;103160.79;88433;1271;99802;-74
2022/03/21 00:20:15;;;;;;;72.30;29.50;;;;;;;-3.28;59.22;103160.14;88467;1271;88740;-76
2022/03/21 00:22:25;;;;;;;;;;;;;;;-3.28;59.27;103161.20;88472;1269;95197;-73
2022/03/21 00:24:38;;;;;;;74.90;35.20;;;;;;;-3.22;59.54;103159.30;88452;1270;82791;-72
2022/03/21 00:26:47;;;;;;;76.10;33.60;;;;;;;-3.17;59.69;103158.83;88416;1271;81629;-73
2022/03/21 00:28:59;;;;;;;77.30;33.90;;;;;;;-3.15;59.73;103159.66;88447;1271;99332;-75
2022/03/21 00:31:08;;;;;;;75.50;33.90;;;;;;;-3.11;59.73;103157.66;88460;1271;88956;-72
2022/03/21 00:33:17;;;;;;;75.60;35.10;;;;;;;-3.07;59.82;103157.72;88405;1270;94699;-76
2022/03/21 00:35:27;;;;;;;70.50;33.70;;;;;;;-3.03;59.86;103158.33;88461;1271;77705;-68
2022/03/21 00:37:37;;;;;;;74.60;34.70;;;;;;;-3.02;59.86;103157.59;88467;1271;80906;-66
2022/03/21 00:39:47;;;;;;;81.60;35.40;;;;;;;-3.02;59.73;103157.60;88457;1271;98965;-74
2022/03/21 00:41:56;;;;;;;70.30;32.80;;;;;;;-3.06;59.73;103155.58;88472;1269;87415;-76
2022/03/21 00:44:07;;;;;;;77.30;35.20;;;;;;;-3.11;59.82;103154.27;88448;1271;95415;-68
2022/03/21 00:46:16;;;;;;;71.10;33.30;;;;;;;-3.14;59.90;103161.05;88391;1271;78449;-66
2022/03/21 00:48:27;;;;;;;68.50;31.90;;;;;;;-3.17;59.98;103160.77;88465;1271;81820;-67
2022/03/21 00:50:39;;;;;;;66.70;31.00;;;;;;;-3.18;60.00;103163.79;88287;1270;99845;-76
2022/03/21 00:52:52;;;;;;;72.20;30.30;;;;;;;-3.20;59.91;103160.48;88429;1271;88722;-74
2022/03/21 00:55:01;;;;;;;64.60;29.60;;;;;;;-3.23;60.10;103157.91;88438;1270;95861;-74
2022/03/21 00:57:10;;;;;;;74.80;32.00;;;;;;;-3.27;60.08;103156.77;88444;1271;79561;-72
2022/03/21 00:59:19;;;;;;;68.40;30.20;;;;;;;-3.29;60.19;103155.22;88454;1271;82330;-73
2022/03/21 01:01:28;;;;;;;67.20;31.00;;;;;;;-3.33;60.05;103155.14;88273;1271;98979;-73
2022/03/21 01:03:40;;;;;;;63.50;31.70;;;;;;;-3.36;60.34;103158.20;88423;1271;87386;-72
2022/03/21 01:05:49;;;;;;;68.90;29.20;;;;;;;-3.39;60.52;103158.61;88442;1271;94992;-73
2022/03/21 01:07:59;;;;;;;71.00;30.30;;;;;;;-3.40;60.51;103157.43;88339;1270;77139;-72
2022/03/21 01:10:12;;;;;;;69.90;31.70;;;;;;;-3.41;60.45;103151.44;88458;1271;81433;-73
2022/03/21 01:12:21;;;;;;;69.00;30.80;;;;;;;-3.45;60.36;103154.17;88457;1271;96933;-73
2022/03/21 01:14:30;;;;;;;67.50;29.10;;;;;;;-3.49;60.65;103150.74;88471;1271;87328;-73
2022/03/21 01:16:40;;;;;;;62.90;28.80;;;;;;;-3.54;60.54;103152.07;88430;1271;95298;-68
2022/03/21 01:18:49;;;;;;;69.30;27.70;;;;;;;-3.59;60.95;103148.30;88425;1271;79001;-67
2022/03/21 01:20:58;;;;;;;72.90;29.30;;;;;;;-3.65;60.90;103147.73;88439;1271;82119;-65
2022/03/21 01:23:10;;;;;;;58.70;27.80;;;;;;;-3.66;61.03;103149.69;88364;1270;100062;-65
2022/03/21 01:25:20;;;;;;;65.00;29.00;;;;;;;-3.65;61.05;103142.80;88460;1271;88456;-75
2022/03/21 01:27:34;;;;;;;58.90;27.90;;;;;;;-3.64;61.28;103139.43;88328;1270;94781;-72
2022/03/21 01:29:43;;;;;;;61.30;27.10;;;;;;;-3.64;61.59;103138.73;88477;1271;79660;-72
2022/03/21 01:31:54;;;;;;;67.40;29.90;;;;;;;-3.66;61.68;103136.84;88360;1270;83421;-73
2022/03/21 01:34:04;;;;;;;73.10;30.50;;;;;;;-3.65;61.82;103136.64;88461;1270;99980;-75
2022/03/21 01:36:16;;;;;;;70.50;30.40;;;;;;;-3.63;62.08;103135.36;88444;1271;88174;-75
2022/03/21 01:38:25;;;;;;;72.60;30.80;;;;;;;-3.61;62.17;103136.54;88428;1271;95075;-76
2022/03/21 01:40:34;;;;;;;72.30;30.80;;;;;;;-3.57;62.19;103133.45;88334;1270;79826;-71
2022/03/21 01:42:47;;;;;;;65.20;30.30;;;;;;;-3.53;62.10;103136.91;88448;1271;81104;-74
2022/03/21 01:44:58;;;;;;;65.50;30.60;;;;;;;-3.53;62.02;103135.33;88424;1271;99693;-66
2022/03/21 01:47:08;;;;;;;68.00;31.90;;;;;;;-3.55;62.13;103132.89;88454;1271;88152;-66
2022/03/21 01:49:17;;;;;;;63.90;29.60;;;;;;;-3.56;61.93;103131.50;88344;1270;93808;-72
2022/03/21 01:51:27;;;;;;;58.90;28.50;;;;;;;-3.58;62.25;103134.19;88412;1270;80215;-75
2022/03/21 01:56:02;;;;;;;72.70;31.30;;;;;;;-3.63;62.09;103127.27;88145;1274;99508;-73
2022/03/21 01:58:13;;;;;;;67.50;30.90;;;;;;;-3.67;62.07;103124.88;88345;1271;89211;-73
2022/03/21 02:00:22;;;;;;;64.30;29.60;;;;;;;-3.69;62.23;103126.52;88438;1270;94074;-66
2022/03/21 02:02:33;;;;;;;68.40;29.60;;;;;;;-3.74;62.14;103123.77;88469;1271;79960;-65
2022/03/21 02:04:42;;;;;;;65.00;28.60;;;;;;;-3.78;62.29;103125.83;88469;1271;83417;-65
2022/03/21 02:06:52;;;;;;;65.60;31.00;;;;;;;-3.81;62.28;103122.89;88445;1271;100138;-66
2022/03/21 02:09:03;;;;;;;60.40;29.30;;;;;;;-3.86;62.47;103122.65;88470;1271;88414;-72
2022/03/21 02:11:12;;;;;;;66.40;31.40;;;;;;;-3.91;62.39;103122.56;88426;1271;95435;-73
2022/03/21 02:13:23;;;;;;;68.80;30.00;;;;;;;-3.95;62.45;103124.77;88431;1270;79289;-73
2022/03/21 02:15:32;;;;;;;66.70;30.70;;;;;;;-4.00;62.61;103125.55;88485;1271;81095;-72
2022/03/21 02:17:44;;;;;;;70.70;31.80;;;;;;;-4.02;62.54;103128.77;88479;1270;99959;-73
2022/03/21 02:19:57;;;;;;;88.20;38.80;;;;;;;-4.01;62.76;103130.33;88410;1271;88673;-75
2022/03/21 02:22:23;;;;;;;84.40;37.20;;;;;;;-3.95;62.77;103130.56;88453;1271;95492;-75
2022/03/21 02:24:49;;;;;;;79.70;34.10;;;;;;;-3.86;63.02;103130.20;88451;1271;79319;-73
2022/03/21 02:26:59;;;;;;;84.10;35.60;;;;;;;-3.78;63.17;103131.10;88501;1271;80558;-72
2022/03/21 02:29:13;;;;;;;77.70;34.80;;;;;;;-3.71;63.16;103131.31;88483;1271;98180;-72
2022/03/21 02:31:24;;;;;;;70.40;33.00;;;;;;;-3.69;63.10;103126.50;88447;1271;89091;-73
2022/03/21 02:33:37;;;;;;;72.60;33.50;;;;;;;-3.69;63.19;103127.39;88451;1271;92734;-73
2022/03/21 02:35:51;;;;;;;53.90;25.90;;;;;;;-3.73;63.25;103128.52;88478;1271;79076;-74
2022/03/21 02:38:02;;;;;;;70.90;30.90;;;;;;;-3.78;63.15;103128.45;88457;1270;83111;-75
2022/03/21 02:40:13;;;;;;;70.10;32.20;;;;;;;-3.82;63.24;103131.52;88450;1271;99492;-65
2022/03/21 02:42:23;;;;;;;68.70;30.00;;;;;;;-3.82;63.14;103134.89;88469;1271;89569;-69
2022/03/21 02:44:39;;;;;;;72.00;30.90;;;;;;;-3.83;63.24;103134.37;88482;1271;94865;-74
2022/03/21 02:46:51;;;;;;;67.80;30.50;;;;;;;-3.86;63.12;103134.96;88451;1271;78559;-73
2022/03/21 02:49:03;;;;;;;64.90;30.70;;;;;;;-3.89;63.05;103135.20;88489;1270;81440;-66
2022/03/21 02:51:16;;;;;;;61.20;30.30;;;;;;;-3.93;63.22;103132.30;88463;1269;98230;-65
2022/03/21 02:53:24;;;;;;;;;;;;;;;-3.97;63.43;103130.08;88481;1271;87699;-63
2022/03/21 02:55:33;;;;;;;62.80;29.10;;;;;;;-4.02;63.57;103128.59;88305;1270;93661;-65
2022/03/21 02:57:45;;;;;;;59.60;29.00;;;;;;;-4.06;63.52;103127.08;88443;1271;78061;-66
2022/03/21 02:59:58;;;;;;;59.30;30.90;;;;;;;-4.12;63.44;103124.90;88473;1270;80423;-65
2022/03/21 03:02:10;;;;;;;61.70;31.10;;;;;;;-4.17;63.58;103125.17;88370;1270;98563;-65
2022/03/21 03:04:23;;;;;;;64.00;32.90;;;;;;;-4.21;63.70;103126.66;88311;1271;89144;-71
2022/03/21 03:06:35;;;;;;;64.40;31.90;;;;;;;-4.24;63.88;103128.84;88301;1270;94637;-71
2022/03/21 03:08:46;;;;;;;68.30;33.90;;;;;;;-4.25;63.68;103133.77;88308;1270;81432;-71
2022/03/21 03:10:59;;;;;;;69.00;33.50;;;;;;;-4.24;63.76;103128.31;88339;1272;83809;-65
2022/03/21 03:13:09;;;;;;;66.50;34.00;;;;;;;-4.22;64.11;103125.10;87450;1270;1166168;-65
2022/03/21 03:15:21;;;;;;;61.90;33.20;;;;;;;-4.18;64.10;103126.79;88312;1273;88870;-65
2022/03/21 03:17:33;;;;;;;63.60;33.80;;;;;;;-4.11;64.29;103121.21;88310;1270;95486;-65
2022/03/21 03:19:46;;;;;;;68.10;34.50;;;;;;;-4.08;64.29;103122.89;88339;1270;76981;-65
2022/03/21 03:21:59;;;;;;;70.70;34.40;;;;;;;-4.05;64.47;103119.15;88348;1270;83825;-65
2022/03/21 03:24:12;;;;;;;66.90;33.70;;;;;;;-4.03;64.52;103121.76;88327;1270;99333;-71
2022/03/21 03:26:22;;;;;;;65.50;33.40;;;;;;;-4.02;64.57;103124.89;88346;1270;88756;-71
2022/03/21 03:28:34;;;;;;;69.90;35.70;;;;;;;-3.99;64.62;103121.66;88357;1271;94836;-71
2022/03/21 03:30:46;;;;;;;65.30;34.10;;;;;;;-3.95;64.52;103123.71;88348;1270;78463;-72
2022/03/21 03:32:58;;;;;;;59.60;33.40;;;;;;;-3.98;64.63;103121.13;88363;1271;81302;-70
2022/03/21 03:35:08;;;;;;;70.10;35.40;;;;;;;-4.02;64.60;103121.02;88318;1270;97859;-71
2022/03/21 03:37:18;;;;;;;70.60;36.00;;;;;;;-4.03;64.48;103115.77;88339;1270;89270;-71
2022/03/21 03:39:31;;;;;;;69.00;35.30;;;;;;;-4.07;64.53;103115.83;88325;1271;95174;-65
2022/03/21 03:41:43;;;;;;;73.70;34.50;;;;;;;-4.12;64.62;103115.41;88311;1270;78727;-66
2022/03/21 03:43:56;;;;;;;71.70;35.40;;;;;;;-4.16;64.70;103116.20;88340;1270;82111;-66
2022/03/21 03:46:05;;;;;;;53.80;26.90;;;;;;;-4.22;64.77;103111.92;88326;1270;99892;-72
2022/03/21 03:48:18;;;;;;;65.10;32.40;;;;;;;-4.28;64.84;103110.80;88327;1270;88751;-70
2022/03/21 03:50:29;;;;;;;64.30;33.80;;;;;;;-4.35;65.03;103111.98;88359;1270;93416;-65
2022/03/21 03:52:40;;;;;;;68.80;34.80;;;;;;;-4.39;64.96;103117.34;88305;1271;78079;-65
2022/03/21 03:54:49;;;;;;;65.80;33.10;;;;;;;-4.42;64.84;103114.73;88336;1270;83204;-65
2022/03/21 03:57:01;;;;;;;71.50;34.70;;;;;;;-4.43;65.06;103119.52;88327;1270;99863;-66
2022/03/21 03:59:14;;;;;;;74.10;35.70;;;;;;;-4.44;65.34;103116.88;88341;1270;89106;-65
2022/03/21 04:01:23;;;;;;;69.10;34.10;;;;;;;-4.42;65.45;103114.73;88447;1270;93434;-65
2022/03/21 04:03:48;;;;;;;63.20;33.40;;;;;;;-4.38;65.53;103115.54;88433;1271;80772;-65
2022/03/21 04:05:57;;;;;;;66.10;33.40;;;;;;;-4.34;65.64;103115.30;88479;1271;80997;-71
2022/03/21 04:08:09;;;;;;;70.90;37.60;;;;;;;-4.30;65.76;103110.30;88510;1271;97967;-71
2022/03/21 04:10:21;;;;;;;65.60;34.70;;;;;;;-4.29;65.65;103111.16;88455;1271;89683;-71
2022/03/21 04:12:30;;;;;;;67.20;35.80;;;;;;;-4.26;65.74;103107.74;88480;1271;94419;-72
2022/03/21 04:14:39;;;;;;;70.90;33.40;;;;;;;-4.25;65.77;103106.50;88470;1271;79749;-73
2022/03/21 04:16:48;;;;;;;71.30;35.40;;;;;;;-4.26;65.71;103104.59;88477;1269;80151;-74
2022/03/21 04:18:57;;;;;;;62.80;33.40;;;;;;;-4.27;65.63;103107.43;88454;1270;99702;-71
2022/03/21 04:21:07;;;;;;;67.30;38.10;;;;;;;-4.28;65.78;103106.40;88470;1271;87579;-70
2022/03/21 04:23:16;;;;;;;70.60;35.90;;;;;;;-4.31;65.55;103107.69;88474;1270;95594;-73
2022/03/21 04:25:26;;;;;;;73.50;37.40;;;;;;;-4.36;65.68;103105.50;88477;1271;78414;-73
2022/03/21 04:27:35;;;;;;;69.60;36.70;;;;;;;-4.39;65.72;103109.95;88456;1270;83328;-72
2022/03/21 04:29:44;;;;;;;72.80;38.00;;;;;;;-4.42;65.69;103112.27;88476;1271;100490;-66
2022/03/21 04:31:53;;;;;;;74.30;37.50;;;;;;;-4.45;65.87;103110.75;88443;1271;89268;-64
2022/03/21 04:34:02;;;;;;;71.00;37.10;;;;;;;-4.49;65.99;103111.02;88466;1271;93891;-70
2022/03/21 04:36:13;;;;;;;78.70;39.00;;;;;;;-4.53;66.05;103110.03;88495;1271;76841;-71
2022/03/21 04:38:22;;;;;;;76.70;39.30;;;;;;;-4.56;66.13;103110.26;88435;1270;80810;-69
2022/03/21 04:40:31;;;;;;;81.20;40.00;;;;;;;-4.56;66.01;103113.06;88457;1271;97700;-71
2022/03/21 04:42:41;;;;;;;88.00;42.00;;;;;;;-4.55;66.24;103111.80;88462;1271;88948;-69
2022/03/21 04:44:50;;;;;;;82.90;40.70;;;;;;;-4.53;66.34;103111.60;88444;1270;93752;-71
2022/03/21 04:46:59;;;;;;;79.60;39.10;;;;;;;-4.48;66.55;103112.39;88427;1271;79215;-66
2022/03/21 04:49:08;;;;;;;86.80;41.00;;;;;;;-4.41;66.39;103117.89;88454;1271;81252;-71
2022/03/21 04:51:20;;;;;;;79.30;42.00;;;;;;;-4.33;66.68;103116.52;88454;1271;99468;-71
2022/03/21 04:53:28;;;;;;;86.30;42.20;;;;;;;-4.26;66.53;103117.27;88453;1271;87822;-71
2022/03/21 04:55:41;;;;;;;93.10;43.20;;;;;;;-4.17;66.55;103115.34;88445;1271;94926;-69
2022/03/21 04:57:51;;;;;;;90.80;42.60;;;;;;;-4.08;66.62;103121.14;88455;1271;77213;-72
2022/03/21 05:00:03;;;;;;;95.40;43.60;;;;;;;-4.01;66.48;103118.70;88473;1271;82213;-65
2022/03/21 05:02:13;;;;;;;88.50;45.10;;;;;;;-3.96;66.44;103120.92;88458;1271;99682;-65
2022/03/21 05:04:22;;;;;;;89.80;43.30;;;;;;;-3.90;66.49;103123.95;88470;1271;87245;-69
2022/03/21 05:06:31;;;;;;;93.50;42.10;;;;;;;-3.86;66.31;103125.11;88473;1271;95652;-69
2022/03/21 05:08:41;;;;;;;84.20;42.80;;;;;;;-3.84;66.30;103123.65;88469;1271;80116;-72
2022/03/21 05:10:53;;;;;;;83.10;40.10;;;;;;;-3.81;66.46;103126.77;88448;1270;80610;-65
2022/03/21 05:13:03;;;;;;;81.50;40.60;;;;;;;-3.77;66.40;103125.98;88462;1271;100248;-64
2022/03/21 05:15:13;;;;;;;77.50;40.40;;;;;;;-3.73;66.51;103125.36;88479;1271;89017;-69
2022/03/21 05:17:22;;;;;;;84.90;41.30;;;;;;;-3.66;66.25;103123.11;88451;1271;94485;-70
2022/03/21 05:19:36;;;;;;;88.70;40.40;;;;;;;-3.60;66.46;103126.51;88453;1269;78804;-69
2022/03/21 05:21:46;;;;;;;95.40;43.80;;;;;;;-3.48;66.38;103121.30;88486;1271;83221;-70
2022/03/21 05:31:17;;;;;;;77.40;39.60;;;;;;;-2.56;65.74;103123.15;88445;1270;78546;-70
2022/03/21 05:35:56;;;;;;;89.60;41.10;;;;;;;-2.42;65.69;103123.30;88462;1271;99619;-66
2022/03/21 05:38:05;;;;;;;88.40;42.60;;;;;;;-2.29;65.54;103124.39;88483;1270;88923;-66
2022/03/21 05:40:34;;;;;;;84.30;42.80;;;;;;;-2.16;65.70;103123.52;88479;1271;94244;-68
2022/03/21 05:42:43;;;;;;;81.50;43.40;;;;;;;-2.00;65.60;103120.40;88442;1271;77235;-69
2022/03/21 05:44:52;;;;;;;87.40;44.70;;;;;;;-1.85;65.53;103124.91;88493;1270;80728;-65
2022/03/21 05:47:02;;;;;;;85.80;42.60;;;;;;;-1.77;65.41;103124.17;88466;1270;99909;-65
2022/03/21 05:49:11;;;;;;;85.70;43.20;;;;;;;-1.72;65.53;103128.80;88441;1271;88428;-66
2022/03/21 05:51:30;;;;;;;84.10;42.20;;;;;;;-1.37;65.62;103124.56;88454;1271;93790;-67
2022/03/21 05:53:44;;;;;;;76.30;43.10;;;;;;;-0.10;65.82;103120.84;88478;1270;78048;-68
2022/03/21 05:55:55;;;;;;;80.40;42.40;;;;;;;1.55;64.57;103116.64;88467;1271;83041;-67
2022/03/21 05:58:08;;;;;;;82.60;44.80;;;;;;;3.21;63.00;103112.95;88488;1271;100269;-67
2022/03/21 06:00:21;;;;;;;76.50;44.30;;;;;;;4.92;61.70;103107.58;88511;1271;88542;-66
2022/03/21 06:02:35;;;;;;;74.40;42.60;;;;;;;6.27;59.95;103104.86;88449;1270;94608;-70
2022/03/21 06:04:45;;;;;;;74.90;43.20;;;;;;;7.39;58.36;103101.78;88462;1269;77312;-64
2022/03/21 06:06:55;;;;;;;74.00;43.80;;;;;;;8.44;56.65;103105.80;88504;1270;81038;-68
2022/03/21 06:09:04;;;;;;;69.80;44.10;;;;;;;9.49;55.40;103102.98;88478;1271;98950;-68
2022/03/21 06:11:13;;;;;;;66.10;43.10;;;;;;;10.22;53.49;103101.83;88466;1271;89130;-69
2022/03/21 06:13:22;;;;;;;71.10;44.40;;;;;;;10.95;52.21;103101.77;88488;1270;93741;-69
2022/03/21 06:15:32;;;;;;;74.60;47.70;;;;;;;11.82;51.01;103100.21;88437;1271;79191;-67
2022/03/21 06:17:45;;;;;;;79.90;48.30;;;;;;;12.55;49.72;103104.27;88449;1271;82059;-67
2022/03/21 06:19:55;;;;;;;86.70;49.40;;;;;;;13.19;48.47;103103.11;88452;1271;99746;-69
2022/03/21 06:22:05;;;;;;;78.00;48.90;;;;;;;13.87;47.08;103095.19;88462;1271;87081;-69
2022/03/21 06:24:18;;;;;;;91.80;54.40;;;;;;;14.15;45.78;103095.59;88456;1271;95138;-67
2022/03/21 06:26:27;;;;;;;103.00;58.90;;;;;;;14.44;44.59;103099.17;88471;1271;77919;-67
2022/03/21 06:28:39;;;;;;;115.00;61.30;;;;;;;14.89;44.10;103099.04;88486;1271;82123;-68
2022/03/21 06:30:51;;;;;;;80.00;51.90;;;;;;;15.24;43.17;103098.75;88471;1271;98087;-69
2022/03/21 06:33:00;;;;;;;99.90;58.60;;;;;;;15.03;42.04;103100.91;88474;1270;88506;-68
2022/03/21 06:35:11;;;;;;;92.10;55.70;;;;;;;15.29;41.19;103101.77;88472;1271;94563;-69
2022/03/21 06:37:20;;;;;;;74.80;51.40;;;;;;;15.68;39.15;103100.98;88435;1271;77427;-67
2022/03/21 06:39:32;;;;;;;74.90;51.40;;;;;;;14.68;38.65;103106.23;88460;1271;83475;-68
2022/03/21 06:41:44;;;;;;;75.70;53.20;;;;;;;14.90;37.98;103102.04;88454;1270;99611;-68
2022/03/21 06:43:54;;;;;;;73.30;51.60;;;;;;;14.89;37.71;103107.76;88492;1271;88371;-67
2022/03/21 06:46:05;;;;;;;75.30;53.10;;;;;;;15.47;37.38;103106.20;88470;1271;95024;-71
2022/03/21 06:48:16;;;;;;;72.40;50.60;;;;;;;16.27;36.86;103105.02;88482;1271;81083;-68
2022/03/21 06:50:28;;;;;;;82.70;55.20;;;;;;;17.16;35.94;103107.30;88466;1271;81104;-67
2022/03/21 06:52:39;;;;;;;74.00;50.90;;;;;;;17.73;35.29;103108.73;88457;1271;99503;-67
2022/03/21 06:54:51;;;;;;;68.80;50.20;;;;;;;18.28;34.24;103105.78;88476;1269;88608;-70
2022/03/21 06:57:03;;;;;;;65.70;48.40;;;;;;;18.11;33.28;103102.55;88450;1271;94746;-71
2022/03/21 06:59:12;;;;;;;67.00;50.30;;;;;;;18.05;32.86;103106.42;88494;1270;77626;-69
2022/03/21 07:01:25;;;;;;;70.30;50.80;;;;;;;18.36;32.21;103110.90;88441;1271;83403;-70
2022/03/21 07:03:34;;;;;;;57.60;47.40;;;;;;;18.45;31.37;103108.40;88459;1271;97711;-70
2022/03/21 07:05:44;;;;;;;66.80;50.00;;;;;;;18.43;31.11;103107.34;88466;1271;88529;-69
2022/03/21 07:07:53;;;;;;;68.00;50.20;;;;;;;18.60;30.62;103110.72;88456;1271;95249;-69
2022/03/21 07:10:02;;;;;;;65.30;48.90;;;;;;;18.59;29.50;103114.46;88473;1271;78135;-71
2022/03/21 07:12:13;;;;;;;59.40;45.50;;;;;;;18.72;29.53;103112.77;88477;1271;81743;-72
2022/03/21 07:14:22;;;;;;;54.80;45.90;;;;;;;19.68;28.92;103106.05;88480;1271;98991;-68
2022/03/21 07:16:31;;;;;;;54.20;42.60;;;;;;;20.22;28.54;103108.73;88481;1271;86412;-69
2022/03/21 07:18:43;;;;;;;58.80;44.50;;;;;;;20.36;27.59;103109.81;88442;1271;95595;-68
2022/03/21 07:20:55;;;;;;;52.40;42.80;;;;;;;20.75;27.38;103113.39;88425;1271;80822;-71
2022/03/21 07:23:05;;;;;;;53.50;44.30;;;;;;;21.63;26.94;103107.48;88479;1271;81236;-70
2022/03/21 07:25:15;;;;;;;53.30;40.90;;;;;;;22.58;26.80;103107.88;88465;1271;99541;-67
2022/03/21 07:27:24;;;;;;;80.40;71.00;;;;;;;23.08;26.07;103106.33;88450;1271;88661;-70
2022/03/21 07:29:37;;;;;;;43.40;36.60;;;;;;;23.52;25.13;103108.48;88448;1271;94513;-70
2022/03/21 07:31:46;;;;;;;39.30;34.60;;;;;;;23.93;24.66;103105.34;88431;1271;81244;-71
2022/03/21 07:33:58;;;;;;;41.60;35.80;;;;;;;24.22;24.34;103109.98;88479;1271;83775;-70
2022/03/21 07:36:10;;;;;;;41.60;34.70;;;;;;;24.62;23.90;103105.45;88443;1270;97618;-67
2022/03/21 07:38:22;;;;;;;45.70;33.70;;;;;;;24.83;23.59;103105.79;88461;1271;87582;-68
2022/03/21 07:40:31;;;;;;;35.30;30.60;;;;;;;24.95;23.00;103110.80;88448;1271;94273;-67
2022/03/21 07:42:40;;;;;;;45.50;36.30;;;;;;;24.99;22.30;103108.75;88465;1270;78622;-67
2022/03/21 07:47:21;;;;;;;37.90;31.00;;;;;;;25.18;21.87;103108.08;88438;1271;99782;-71
2022/03/21 07:49:30;;;;;;;34.90;29.20;;;;;;;25.18;21.36;103109.14;88295;1271;89429;-71
2022/03/21 07:51:43;;;;;;;36.40;29.60;;;;;;;25.37;21.75;103109.17;88474;1271;94419;-70
2022/03/21 07:53:54;;;;;;;;;;;;;;;25.65;21.40;103109.58;88490;1270;78372;-71
2022/03/21 07:56:03;;;;;;;29.50;25.90;;;;;;;25.95;21.23;103112.78;88455;1270;80690;-70
2022/03/21 07:58:13;;;;;;;43.00;30.50;;;;;;;26.28;20.56;103107.69;88444;1271;97685;-68
2022/03/21 08:00:26;;;;;;;46.70;37.10;;;;;;;26.21;19.96;103112.29;88419;1268;88378;-68
2022/03/21 08:02:35;;;;;;;35.50;27.50;;;;;;;26.11;19.73;103109.16;88418;1271;95595;-69
2022/03/21 08:04:47;;;;;;;37.50;30.20;;;;;;;26.41;19.46;103104.34;88294;1274;79363;-68
2022/03/21 08:06:59;;;;;;;29.70;26.40;;;;;;;26.46;19.07;103102.84;88493;1270;82865;-68
2022/03/21 08:09:09;;;;;;;32.00;27.50;;;;;;;26.59;18.71;103101.48;88479;1271;99602;-70
2022/03/21 08:11:21;;;;;;;28.90;24.90;;;;;;;26.89;19.06;103096.27;88328;1271;88915;-69
2022/03/21 08:13:30;;;;;;;27.80;24.80;;;;;;;27.25;18.37;103101.42;88458;1269;93593;-73
2022/03/21 08:15:39;;;;;;;28.00;25.10;;;;;;;27.44;18.04;103096.24;88519;1271;82350;-69
2022/03/21 08:17:57;;;;;;;27.00;24.20;;;;;;;27.32;18.23;103099.73;88424;1271;83100;-71
2022/03/21 08:20:08;;;;;;;34.60;26.90;;;;;;;26.90;17.60;103100.77;88471;1271;100157;-71
2022/03/21 08:22:17;;;;;;;30.00;24.90;;;;;;;26.78;18.34;103096.84;88487;1271;88026;-68
2022/03/21 08:24:28;;;;;;;28.90;23.00;;;;;;;26.99;17.84;103100.40;88453;1271;95038;-68
2022/03/21 08:26:37;;;;;;;26.30;23.40;;;;;;;26.55;17.59;103101.88;88485;1271;78541;-67
2022/03/21 08:28:47;;;;;;;23.40;21.00;;;;;;;26.42;17.97;103100.61;88455;1271;82797;-67
2022/03/21 08:30:58;;;;;;;27.60;24.10;;;;;;;26.75;17.75;103096.32;88449;1271;100356;-69
2022/03/21 08:33:10;;;;;;;29.30;25.20;;;;;;;26.47;17.93;103100.60;88468;1271;89388;-69
2022/03/21 08:35:21;;;;;;;25.90;22.00;;;;;;;26.29;17.65;103100.41;88453;1271;95592;-70
2022/03/21 08:37:33;;;;;;;21.90;19.70;;;;;;;26.49;17.53;103095.89;88434;1270;78014;-67
2022/03/21 08:39:42;;;;;;;21.70;19.60;;;;;;;26.08;17.43;103093.50;88465;1271;82263;-68
2022/03/21 08:41:52;;;;;;;24.70;21.90;;;;;;;26.20;17.47;103092.92;88442;1271;98347;-67
2022/03/21 08:44:02;;;;;;;23.70;20.20;;;;;;;26.29;16.96;103087.99;88475;1271;89454;-70
2022/03/21 08:46:11;;;;;;;26.40;20.60;;;;;;;26.24;16.58;103086.67;88490;1271;93762;-70
2022/03/21 08:49:23;;;;;;;21.70;19.40;;;;;;;25.80;17.12;103090.83;88465;1271;77316;-71
2022/03/21 08:50:52;;;;;;;18.50;16.70;;;;;;;25.10;17.11;103087.59;88327;1271;83643;-68
2022/03/21 08:53:01;;;;;;;18.10;16.20;;;;;;;25.35;16.70;103084.99;88448;1271;98545;-69
2022/03/21 08:55:13;;;;;;;22.20;19.90;;;;;;;25.46;16.48;103083.66;88484;1271;88914;-69
2022/03/21 08:57:21;;;;;;;21.90;19.00;;;;;;;25.71;16.80;103079.77;88454;1271;95986;-71
2022/03/21 08:59:30;;;;;;;22.20;18.00;;;;;;;25.80;16.86;103077.88;88453;1269;78052;-70
2022/03/21 09:01:40;;;;;;;20.20;16.20;;;;;;;26.04;16.69;103072.69;88464;1271;82529;-71
2022/03/21 09:03:49;;;;;;;21.80;17.70;;;;;;;25.92;15.73;103076.33;88453;1271;97937;-70
2022/03/21 09:06:01;;;;;;;18.40;16.40;;;;;;;25.98;16.56;103077.30;88401;1271;88431;-70
2022/03/21 09:08:13;;;;;;;22.40;19.90;;;;;;;25.58;16.63;103078.78;88448;1270;95720;-68
2022/03/21 09:10:25;;;;;;;17.50;15.70;;;;;;;25.75;16.57;103076.69;88472;1271;78787;-69
2022/03/21 09:12:34;;;;;;;20.00;17.80;;;;;;;25.67;16.76;103074.91;88478;1271;81709;-71
2022/03/21 09:14:46;;;;;;;19.30;17.40;;;;;;;25.53;16.96;103072.54;88459;1269;99142;-69
2022/03/21 09:16:56;;;;;;;20.00;18.00;;;;;;;25.21;16.83;103076.09;88457;1271;87275;-69
2022/03/21 09:19:05;;;;;;;24.90;20.70;;;;;;;24.98;16.17;103075.53;88490;1271;95932;-69
2022/03/21 09:21:14;;;;;;;21.20;19.00;;;;;;;25.21;16.67;103077.36;88435;1269;79830;-70
2022/03/21 09:23:26;;;;;;;19.10;17.10;;;;;;;25.66;16.47;103072.92;88485;1271;82158;-70
2022/03/21 09:25:36;;;;;;;20.70;18.60;;;;;;;25.97;16.36;103074.89;88451;1271;101060;-70
2022/03/21 09:27:45;;;;;;;20.40;17.40;;;;;;;25.88;16.04;103076.96;88451;1269;89292;-71
2022/03/21 09:29:54;;;;;;;18.70;16.90;;;;;;;25.12;16.29;103080.85;88449;1271;95977;-69
2022/03/21 09:32:03;;;;;;;20.70;18.50;;;;;;;24.99;15.88;103083.02;88419;1270;77572;-68
2022/03/21 09:34:14;;;;;;;18.50;16.50;;;;;;;24.14;15.22;103079.63;88436;1271;82342;-69
2022/03/21 09:36:26;;;;;;;18.70;16.60;;;;;;;23.85;16.28;103075.81;88458;1271;99992;-70
2022/03/21 09:38:38;;;;;;;20.30;18.20;;;;;;;24.09;16.22;103075.10;88477;1271;88781;-69
2022/03/21 09:40:49;;;;;;;22.10;17.60;;;;;;;23.82;15.66;103077.46;88430;1271;96120;-70
2022/03/21 09:43:01;;;;;;;17.80;15.90;;;;;;;23.50;16.21;103076.09;88456;1271;77123;-70
2022/03/21 09:45:13;;;;;;;17.00;15.30;;;;;;;23.53;16.52;103072.86;88488;1271;82627;-70
2022/03/21 09:49:58;;;;;;;21.80;18.40;;;;;;;23.10;16.53;103068.17;88445;1271;88929;-69
2022/03/21 09:52:08;;;;;;;21.30;17.30;;;;;;;22.53;16.67;103070.83;88430;1271;96495;-69
2022/03/21 09:54:17;;;;;;;18.00;15.60;;;;;;;22.03;16.37;103064.26;88457;1271;77085;-67
2022/03/21 09:56:27;;;;;;;19.70;15.60;;;;;;;21.48;16.93;103066.38;88438;1271;82821;-68
2022/03/21 09:58:40;;;;;;;20.80;17.60;;;;;;;21.09;17.28;103068.52;88505;1271;100011;-68
2022/03/21 10:00:53;;;;;;;24.80;18.30;;;;;;;20.61;17.71;103061.09;88481;1271;88853;-68
2022/03/21 10:03:02;;;;;;;22.10;17.40;;;;;;;20.09;17.84;103058.14;88480;1271;94959;-72
2022/03/21 10:05:32;;;;;;;21.00;15.40;;;;;;;19.57;17.93;103057.86;88452;1271;80261;-70
2022/03/21 10:07:41;;;;;;;24.60;14.60;;;;;;;18.78;18.38;103058.42;88464;1271;84111;-70
2022/03/21 10:10:08;;;;;;;16.10;14.40;;;;;;;18.55;18.84;103058.50;88465;1271;97899;-69
2022/03/21 10:12:21;;;;;;;20.00;16.30;;;;;;;18.23;19.11;103053.15;88474;1270;89728;-70